To NAV CANADA Home Page Login to a new session Search on AWWS site Feedback and Comments Disclaimer Vers la page française équivalente Tips FAQ What's new on the site To the Forecasts and Observations / NOTAM section To "File a Flight Plan" website Publications and other links Update of the User's profile FIC Telephone Numbers My Weather Data Folder Route Weather Data Regional Weather Data Local Weather Data To the Forecasts and Observations / NOTAM section
Request Generated 05/24/2016 at 07:52:53 UTC . Weather information available at that time is displayed.

METAR/TAF

FREDERICTON/FREDERICTON INTL/NB    (show WxCam)

SPECI CYFC 240714Z AUTO VRB02KT 7SM CLR 10/09 A2997 RMK SLP150=
SPECI CYFC 240704Z AUTO 29002KT 4SM BR FEW018 10/09 A2997 RMK SLP150=
METAR CYFC 240700Z AUTO 28002KT 9SM FEW018 11/10 A2997 RMK SLP150=
SPECI CYFC 240653Z AUTO 28002KT 9SM SCT018 10/09 A2997 RMK SLP150=
SPECI CYFC 240614Z AUTO 23004KT 9SM BKN018 10/09 A2998 RMK SLP153=
METAR CYFC 240600Z AUTO 23004KT 9SM CLR 10/09 A2998 RMK SLP154=
METAR CYFC 240500Z AUTO 21003KT 9SM CLR 11/09 A2998 RMK SLP153=

TAF AMD CYFC 240707Z 2407/2418 VRB03KT P6SM SCT020 TEMPO 2407/2412
21/2SM BR BKN005
FM241400 14006KT P6SM BKN050
RMK FCST BASED ON AUTO OBS. NXT FCST BY 241200Z=
Your time UTC time
Weather data provided by Environment Canada and NAV CANADA